sensor_id;sensor_type;location;lat;lon;timestamp;P1;durP1;ratioP1;P2;durP2;ratioP2
13240;SDS011;6687;47.790;7.322;2023-06-22T05:24:30;3.00;;;2.22;;
13240;SDS011;6687;47.790;7.322;2023-06-22T05:26:57;2.35;;;2.08;;
13240;SDS011;6687;47.790;7.322;2023-06-22T05:29:23;4.25;;;2.55;;
13240;SDS011;6687;47.790;7.322;2023-06-22T05:31:51;3.60;;;1.90;;
13240;SDS011;6687;47.790;7.322;2023-06-22T05:34:18;3.70;;;2.47;;
13240;SDS011;6687;47.790;7.322;2023-06-22T05:36:45;2.88;;;2.00;;
13240;SDS011;6687;47.790;7.322;2023-06-22T05:39:12;2.88;;;2.42;;
13240;SDS011;6687;47.790;7.322;2023-06-22T05:41:41;3.13;;;2.65;;
13240;SDS011;6687;47.790;7.322;2023-06-22T05:44:08;3.85;;;2.35;;
13240;SDS011;6687;47.790;7.322;2023-06-22T05:46:35;2.67;;;1.75;;
13240;SDS011;6687;47.790;7.322;2023-06-22T05:49:01;4.70;;;2.60;;
13240;SDS011;6687;47.790;7.322;2023-06-22T05:51:28;3.22;;;2.17;;
13240;SDS011;6687;47.790;7.322;2023-06-22T05:53:55;3.92;;;2.10;;
13240;SDS011;6687;47.790;7.322;2023-06-22T05:56:22;2.92;;;2.30;;
13240;SDS011;6687;47.790;7.322;2023-06-22T05:58:50;2.83;;;2.05;;
13240;SDS011;6687;47.790;7.322;2023-06-22T06:01:16;3.35;;;2.10;;
13240;SDS011;6687;47.790;7.322;2023-06-22T06:03:43;2.35;;;1.77;;
13240;SDS011;6687;47.790;7.322;2023-06-22T06:06:10;2.58;;;1.92;;
13240;SDS011;6687;47.790;7.322;2023-06-22T06:08:37;4.30;;;2.50;;
13240;SDS011;6687;47.790;7.322;2023-06-22T06:11:03;3.40;;;2.20;;
13240;SDS011;6687;47.790;7.322;2023-06-22T06:13:30;3.35;;;2.20;;
13240;SDS011;6687;47.790;7.322;2023-06-22T06:15:58;3.95;;;1.95;;
13240;SDS011;6687;47.790;7.322;2023-06-22T06:18:26;4.80;;;3.08;;
13240;SDS011;6687;47.790;7.322;2023-06-22T06:20:52;3.90;;;2.47;;
13240;SDS011;6687;47.790;7.322;2023-06-22T06:23:19;3.83;;;2.30;;
13240;SDS011;6687;47.790;7.322;2023-06-22T06:25:46;3.28;;;2.15;;
13240;SDS011;6687;47.790;7.322;2023-06-22T06:28:13;2.65;;;1.50;;
13240;SDS011;6687;47.790;7.322;2023-06-22T06:30:39;4.88;;;2.05;;
13240;SDS011;6687;47.790;7.322;2023-06-22T06:33:08;1.95;;;1.67;;
13240;SDS011;6687;47.790;7.322;2023-06-22T06:35:35;1.75;;;1.60;;
13240;SDS011;6687;47.790;7.322;2023-06-22T06:38:02;3.30;;;1.90;;
13240;SDS011;6687;47.790;7.322;2023-06-22T06:40:29;3.63;;;2.22;;
13240;SDS011;6687;47.790;7.322;2023-06-22T06:42:56;2.08;;;1.58;;
13240;SDS011;6687;47.790;7.322;2023-06-22T06:45:23;3.88;;;1.60;;
13240;SDS011;6687;47.790;7.322;2023-06-22T06:47:51;2.47;;;1.77;;
13240;SDS011;6687;47.790;7.322;2023-06-22T06:50:19;2.42;;;1.52;;
13240;SDS011;6687;47.790;7.322;2023-06-22T06:52:47;3.80;;;2.10;;
13240;SDS011;6687;47.790;7.322;2023-06-22T06:55:15;2.20;;;1.90;;
13240;SDS011;6687;47.790;7.322;2023-06-22T06:57:42;2.35;;;1.98;;
13240;SDS011;6687;47.790;7.322;2023-06-22T07:00:10;3.78;;;2.35;;
13240;SDS011;6687;47.790;7.322;2023-06-22T07:02:38;2.60;;;2.03;;
13240;SDS011;6687;47.790;7.322;2023-06-22T07:05:06;1.85;;;1.33;;
13240;SDS011;6687;47.790;7.322;2023-06-22T07:07:34;2.75;;;2.00;;
13240;SDS011;6687;47.790;7.322;2023-06-22T07:10:01;1.88;;;1.73;;
13240;SDS011;6687;47.790;7.322;2023-06-22T07:12:29;2.90;;;1.73;;
13240;SDS011;6687;47.790;7.322;2023-06-22T07:15:00;2.22;;;1.67;;
13240;SDS011;6687;47.790;7.322;2023-06-22T07:17:28;2.83;;;2.20;;
13240;SDS011;6687;47.790;7.322;2023-06-22T07:19:54;3.30;;;2.25;;
13240;SDS011;6687;47.790;7.322;2023-06-22T07:22:21;2.55;;;1.90;;
13240;SDS011;6687;47.790;7.322;2023-06-22T07:24:49;3.15;;;1.85;;
13240;SDS011;6687;47.790;7.322;2023-06-22T07:27:16;2.30;;;2.10;;
13240;SDS011;6687;47.790;7.322;2023-06-22T07:29:44;2.08;;;1.67;;
13240;SDS011;6687;47.790;7.322;2023-06-22T07:32:11;3.13;;;1.95;;
13240;SDS011;6687;47.790;7.322;2023-06-22T07:34:37;2.53;;;1.98;;
13240;SDS011;6687;47.790;7.322;2023-06-22T07:37:04;1.58;;;1.48;;
13240;SDS011;6687;47.790;7.322;2023-06-22T07:39:31;3.13;;;2.20;;
13240;SDS011;6687;47.790;7.322;2023-06-22T07:41:59;1.88;;;1.70;;
13240;SDS011;6687;47.790;7.322;2023-06-22T07:44:26;1.50;;;1.40;;
13240;SDS011;6687;47.790;7.322;2023-06-22T07:46:53;3.28;;;2.22;;
13240;SDS011;6687;47.790;7.322;2023-06-22T07:49:19;3.65;;;2.05;;
13240;SDS011;6687;47.790;7.322;2023-06-22T07:51:46;1.70;;;1.60;;
13240;SDS011;6687;47.790;7.322;2023-06-22T07:54:13;2.13;;;1.73;;
13240;SDS011;6687;47.790;7.322;2023-06-22T07:56:40;2.78;;;1.70;;
13240;SDS011;6687;47.790;7.322;2023-06-22T07:59:09;2.70;;;1.80;;
13240;SDS011;6687;47.790;7.322;2023-06-22T08:01:36;4.47;;;1.77;;
13240;SDS011;6687;47.790;7.322;2023-06-22T08:04:03;2.33;;;1.70;;
13240;SDS011;6687;47.790;7.322;2023-06-22T08:06:30;1.88;;;1.67;;
13240;SDS011;6687;47.790;7.322;2023-06-22T08:08:57;2.85;;;2.08;;
13240;SDS011;6687;47.790;7.322;2023-06-22T08:11:24;3.75;;;1.85;;
13240;SDS011;6687;47.790;7.322;2023-06-22T08:13:51;1.75;;;1.52;;
13240;SDS011;6687;47.790;7.322;2023-06-22T08:16:19;3.90;;;2.08;;
13240;SDS011;6687;47.790;7.322;2023-06-22T08:18:46;2.70;;;2.42;;
13240;SDS011;6687;47.790;7.322;2023-06-22T08:21:13;3.60;;;2.35;;
13240;SDS011;6687;47.790;7.322;2023-06-22T08:23:40;2.88;;;2.50;;
13240;SDS011;6687;47.790;7.322;2023-06-22T08:26:07;4.15;;;2.83;;
13240;SDS011;6687;47.790;7.322;2023-06-22T08:28:34;3.35;;;2.85;;
13240;SDS011;6687;47.790;7.322;2023-06-22T08:31:01;4.25;;;2.15;;
13240;SDS011;6687;47.790;7.322;2023-06-22T08:33:29;2.58;;;1.90;;
13240;SDS011;6687;47.790;7.322;2023-06-22T08:35:57;2.50;;;2.03;;
13240;SDS011;6687;47.790;7.322;2023-06-22T08:38:25;2.30;;;1.77;;
13240;SDS011;6687;47.790;7.322;2023-06-22T08:40:51;2.58;;;2.17;;
13240;SDS011;6687;47.790;7.322;2023-06-22T08:43:18;1.67;;;1.45;;
13240;SDS011;6687;47.790;7.322;2023-06-22T08:45:45;2.58;;;1.88;;
13240;SDS011;6687;47.790;7.322;2023-06-22T08:48:12;2.13;;;1.88;;
13240;SDS011;6687;47.790;7.322;2023-06-22T08:50:40;2.25;;;1.85;;
13240;SDS011;6687;47.790;7.322;2023-06-22T08:53:06;3.63;;;2.10;;
13240;SDS011;6687;47.790;7.322;2023-06-22T08:55:33;3.60;;;2.65;;
13240;SDS011;6687;47.790;7.322;2023-06-22T08:58:00;2.30;;;1.70;;
13240;SDS011;6687;47.790;7.322;2023-06-22T09:00:27;3.08;;;2.50;;
13240;SDS011;6687;47.790;7.322;2023-06-22T09:02:57;3.42;;;2.10;;
13240;SDS011;6687;47.790;7.322;2023-06-22T09:05:24;3.85;;;1.70;;
13240;SDS011;6687;47.790;7.322;2023-06-22T09:07:52;3.95;;;2.53;;
13240;SDS011;6687;47.790;7.322;2023-06-22T09:10:20;2.30;;;1.80;;
13240;SDS011;6687;47.790;7.322;2023-06-22T09:12:47;1.98;;;1.67;;
13240;SDS011;6687;47.790;7.322;2023-06-22T09:15:14;2.58;;;2.00;;
13240;SDS011;6687;47.790;7.322;2023-06-22T09:17:41;2.22;;;2.00;;
13240;SDS011;6687;47.790;7.322;2023-06-22T09:20:09;5.63;;;2.15;;
13240;SDS011;6687;47.790;7.322;2023-06-22T09:22:36;2.88;;;2.08;;
13240;SDS011;6687;47.790;7.322;2023-06-22T09:25:05;2.30;;;1.70;;
13240;SDS011;6687;47.790;7.322;2023-06-22T09:27:32;4.47;;;1.65;;
13240;SDS011;6687;47.790;7.322;2023-06-22T09:29:59;3.70;;;2.10;;
13240;SDS011;6687;47.790;7.322;2023-06-22T09:32:26;2.10;;;1.50;;
13240;SDS011;6687;47.790;7.322;2023-06-22T09:34:52;1.80;;;1.70;;
13240;SDS011;6687;47.790;7.322;2023-06-22T09:37:19;3.35;;;2.10;;
13240;SDS011;6687;47.790;7.322;2023-06-22T09:39:46;2.33;;;2.00;;
13240;SDS011;6687;47.790;7.322;2023-06-22T09:42:14;2.88;;;2.35;;
13240;SDS011;6687;47.790;7.322;2023-06-22T09:44:40;1.50;;;1.40;;
13240;SDS011;6687;47.790;7.322;2023-06-22T09:47:07;1.45;;;1.35;;
13240;SDS011;6687;47.790;7.322;2023-06-22T09:49:34;1.73;;;1.63;;
13240;SDS011;6687;47.790;7.322;2023-06-22T09:52:01;3.75;;;1.70;;
13240;SDS011;6687;47.790;7.322;2023-06-22T09:54:27;2.33;;;1.70;;
13240;SDS011;6687;47.790;7.322;2023-06-22T09:56:54;2.00;;;1.55;;
13240;SDS011;6687;47.790;7.322;2023-06-22T09:59:22;1.73;;;1.63;;
13240;SDS011;6687;47.790;7.322;2023-06-22T10:01:49;2.40;;;1.58;;
13240;SDS011;6687;47.790;7.322;2023-06-22T10:04:16;3.42;;;1.77;;
13240;SDS011;6687;47.790;7.322;2023-06-22T10:06:42;4.13;;;1.75;;
13240;SDS011;6687;47.790;7.322;2023-06-22T10:09:09;2.28;;;1.30;;
13240;SDS011;6687;47.790;7.322;2023-06-22T10:11:36;2.55;;;1.63;;
13240;SDS011;6687;47.790;7.322;2023-06-22T10:14:03;2.45;;;1.92;;
13240;SDS011;6687;47.790;7.322;2023-06-22T10:16:31;3.53;;;1.80;;
13240;SDS011;6687;47.790;7.322;2023-06-22T10:19:00;2.72;;;2.13;;
13240;SDS011;6687;47.790;7.322;2023-06-22T10:21:27;1.67;;;1.55;;
13240;SDS011;6687;47.790;7.322;2023-06-22T10:23:54;2.25;;;1.92;;
13240;SDS011;6687;47.790;7.322;2023-06-22T10:26:21;4.72;;;1.73;;
13240;SDS011;6687;47.790;7.322;2023-06-22T10:28:48;2.35;;;1.45;;
13240;SDS011;6687;47.790;7.322;2023-06-22T10:31:14;1.60;;;1.38;;
13240;SDS011;6687;47.790;7.322;2023-06-22T10:33:43;4.07;;;1.75;;
13240;SDS011;6687;47.790;7.322;2023-06-22T10:36:10;5.90;;;2.20;;
13240;SDS011;6687;47.790;7.322;2023-06-22T10:38:37;2.47;;;2.13;;
13240;SDS011;6687;47.790;7.322;2023-06-22T10:41:03;2.50;;;2.08;;
13240;SDS011;6687;47.790;7.322;2023-06-22T10:43:30;1.65;;;1.35;;
13240;SDS011;6687;47.790;7.322;2023-06-22T10:45:57;2.38;;;1.52;;
13240;SDS011;6687;47.790;7.322;2023-06-22T10:48:23;2.88;;;1.92;;
13240;SDS011;6687;47.790;7.322;2023-06-22T10:50:51;2.60;;;1.67;;
13240;SDS011;6687;47.790;7.322;2023-06-22T10:53:19;2.30;;;1.70;;
13240;SDS011;6687;47.790;7.322;2023-06-22T10:55:46;2.53;;;1.70;;
13240;SDS011;6687;47.790;7.322;2023-06-22T10:58:13;1.60;;;1.50;;
13240;SDS011;6687;47.790;7.322;2023-06-22T11:00:39;5.45;;;2.15;;
13240;SDS011;6687;47.790;7.322;2023-06-22T11:03:06;2.65;;;1.90;;
13240;SDS011;6687;47.790;7.322;2023-06-22T11:05:33;3.58;;;2.03;;
13240;SDS011;6687;47.790;7.322;2023-06-22T11:08:01;3.28;;;1.90;;
13240;SDS011;6687;47.790;7.322;2023-06-22T11:10:27;2.00;;;1.63;;
13240;SDS011;6687;47.790;7.322;2023-06-22T11:12:54;2.15;;;1.95;;
13240;SDS011;6687;47.790;7.322;2023-06-22T11:15:22;2.90;;;1.67;;
13240;SDS011;6687;47.790;7.322;2023-06-22T11:17:49;2.78;;;1.90;;
13240;SDS011;6687;47.790;7.322;2023-06-22T11:20:16;3.67;;;2.08;;
13240;SDS011;6687;47.790;7.322;2023-06-22T11:22:43;4.25;;;2.42;;
13240;SDS011;6687;47.790;7.322;2023-06-22T11:25:11;5.35;;;2.45;;
13240;SDS011;6687;47.790;7.322;2023-06-22T11:27:38;4.82;;;2.25;;
13240;SDS011;6687;47.790;7.322;2023-06-22T11:30:05;3.60;;;2.25;;
13240;SDS011;6687;47.790;7.322;2023-06-22T11:32:33;2.55;;;2.00;;
13240;SDS011;6687;47.790;7.322;2023-06-22T11:35:00;2.15;;;1.95;;
13240;SDS011;6687;47.790;7.322;2023-06-22T11:37:26;3.40;;;2.15;;
13240;SDS011;6687;47.790;7.322;2023-06-22T11:39:53;2.13;;;1.90;;
13240;SDS011;6687;47.790;7.322;2023-06-22T11:42:21;2.28;;;1.90;;
13240;SDS011;6687;47.790;7.322;2023-06-22T11:44:50;2.28;;;1.90;;
13240;SDS011;6687;47.790;7.322;2023-06-22T11:47:17;2.17;;;1.77;;
13240;SDS011;6687;47.790;7.322;2023-06-22T11:49:43;2.33;;;2.13;;
13240;SDS011;6687;47.790;7.322;2023-06-22T11:52:10;2.30;;;1.80;;
13240;SDS011;6687;47.790;7.322;2023-06-22T11:54:37;3.08;;;2.10;;
13240;SDS011;6687;47.790;7.322;2023-06-22T11:57:04;2.50;;;2.00;;
13240;SDS011;6687;47.790;7.322;2023-06-22T11:59:32;4.82;;;1.88;;
13240;SDS011;6687;47.790;7.322;2023-06-22T12:01:59;4.30;;;1.90;;
13240;SDS011;6687;47.790;7.322;2023-06-22T12:04:26;4.38;;;1.60;;
13240;SDS011;6687;47.790;7.322;2023-06-22T12:06:53;3.08;;;2.05;;
13240;SDS011;6687;47.790;7.322;2023-06-22T12:09:19;2.45;;;1.75;;
13240;SDS011;6687;47.790;7.322;2023-06-22T12:11:46;2.45;;;1.88;;
13240;SDS011;6687;47.790;7.322;2023-06-22T12:14:13;2.38;;;1.70;;
13240;SDS011;6687;47.790;7.322;2023-06-22T12:16:41;4.68;;;2.05;;
13240;SDS011;6687;47.790;7.322;2023-06-22T12:19:09;3.35;;;2.00;;
13240;SDS011;6687;47.790;7.322;2023-06-22T12:21:36;2.88;;;1.80;;
13240;SDS011;6687;47.790;7.322;2023-06-22T12:24:04;1.70;;;1.60;;
13240;SDS011;6687;47.790;7.322;2023-06-22T12:26:31;3.28;;;2.03;;
13240;SDS011;6687;47.790;7.322;2023-06-22T12:28:57;4.28;;;1.75;;
13240;SDS011;6687;47.790;7.322;2023-06-22T12:31:24;4.97;;;1.70;;
13240;SDS011;6687;47.790;7.322;2023-06-22T12:33:52;1.42;;;1.33;;
13240;SDS011;6687;47.790;7.322;2023-06-22T12:36:19;3.88;;;2.05;;
13240;SDS011;6687;47.790;7.322;2023-06-22T12:38:46;2.58;;;1.45;;
13240;SDS011;6687;47.790;7.322;2023-06-22T12:41:12;1.73;;;1.63;;
13240;SDS011;6687;47.790;7.322;2023-06-22T12:43:40;6.95;;;2.05;;
13240;SDS011;6687;47.790;7.322;2023-06-22T12:46:07;2.05;;;1.50;;
13240;SDS011;6687;47.790;7.322;2023-06-22T12:48:33;4.82;;;2.10;;
13240;SDS011;6687;47.790;7.322;2023-06-22T12:51:08;3.92;;;1.20;;
13240;SDS011;6687;47.790;7.322;2023-06-22T12:53:34;3.55;;;1.45;;
13240;SDS011;6687;47.790;7.322;2023-06-22T12:56:01;2.22;;;2.03;;
13240;SDS011;6687;47.790;7.322;2023-06-22T12:58:28;2.55;;;1.45;;
13240;SDS011;6687;47.790;7.322;2023-06-22T13:00:54;3.47;;;1.35;;
13240;SDS011;6687;47.790;7.322;2023-06-22T13:03:21;2.00;;;1.20;;
13240;SDS011;6687;47.790;7.322;2023-06-22T13:05:50;1.40;;;1.30;;
13240;SDS011;6687;47.790;7.322;2023-06-22T13:08:18;1.10;;;1.00;;
13240;SDS011;6687;47.790;7.322;2023-06-22T13:10:44;2.65;;;1.40;;
13240;SDS011;6687;47.790;7.322;2023-06-22T13:13:11;3.92;;;1.60;;
13240;SDS011;6687;47.790;7.322;2023-06-22T13:15:38;6.22;;;1.88;;
13240;SDS011;6687;47.790;7.322;2023-06-22T13:18:05;2.17;;;1.05;;
13240;SDS011;6687;47.790;7.322;2023-06-22T13:20:31;1.58;;;1.33;;
13240;SDS011;6687;47.790;7.322;2023-06-22T13:22:58;2.45;;;1.58;;
13240;SDS011;6687;47.790;7.322;2023-06-22T13:25:26;1.75;;;1.38;;
13240;SDS011;6687;47.790;7.322;2023-06-22T13:27:53;3.05;;;1.95;;
13240;SDS011;6687;47.790;7.322;2023-06-22T13:30:19;2.17;;;1.55;;
13240;SDS011;6687;47.790;7.322;2023-06-22T13:32:46;3.80;;;1.83;;
13240;SDS011;6687;47.790;7.322;2023-06-22T13:35:13;2.72;;;1.77;;
13240;SDS011;6687;47.790;7.322;2023-06-22T13:37:40;2.45;;;1.38;;
13240;SDS011;6687;47.790;7.322;2023-06-22T13:40:07;2.65;;;1.75;;
13240;SDS011;6687;47.790;7.322;2023-06-22T13:42:36;3.00;;;2.25;;
13240;SDS011;6687;47.790;7.322;2023-06-22T13:45:03;1.42;;;1.33;;
13240;SDS011;6687;47.790;7.322;2023-06-22T13:47:30;2.05;;;1.85;;
13240;SDS011;6687;47.790;7.322;2023-06-22T13:49:57;3.38;;;1.83;;
13240;SDS011;6687;47.790;7.322;2023-06-22T13:52:23;2.72;;;1.50;;
13240;SDS011;6687;47.790;7.322;2023-06-22T13:54:50;2.85;;;1.70;;
13240;SDS011;6687;47.790;7.322;2023-06-22T13:57:17;1.70;;;1.60;;
13240;SDS011;6687;47.790;7.322;2023-06-22T13:59:45;2.38;;;1.50;;
13240;SDS011;6687;47.790;7.322;2023-06-22T14:02:12;2.15;;;1.58;;
13240;SDS011;6687;47.790;7.322;2023-06-22T14:04:38;2.03;;;1.30;;
13240;SDS011;6687;47.790;7.322;2023-06-22T14:07:05;1.70;;;1.58;;
13240;SDS011;6687;47.790;7.322;2023-06-22T14:09:32;2.10;;;1.60;;
13240;SDS011;6687;47.790;7.322;2023-06-22T14:12:02;1.35;;;1.27;;
13240;SDS011;6687;47.790;7.322;2023-06-22T14:14:29;2.90;;;1.75;;
13240;SDS011;6687;47.790;7.322;2023-06-22T14:16:57;3.05;;;1.55;;
13240;SDS011;6687;47.790;7.322;2023-06-22T14:19:24;2.78;;;1.48;;
13240;SDS011;6687;47.790;7.322;2023-06-22T14:21:51;3.35;;;1.55;;
13240;SDS011;6687;47.790;7.322;2023-06-22T14:24:17;4.95;;;1.80;;
13240;SDS011;6687;47.790;7.322;2023-06-22T14:26:44;2.15;;;1.60;;
13240;SDS011;6687;47.790;7.322;2023-06-22T14:29:11;2.38;;;1.63;;
13240;SDS011;6687;47.790;7.322;2023-06-22T14:31:37;2.58;;;1.70;;
13240;SDS011;6687;47.790;7.322;2023-06-22T14:34:06;1.60;;;1.38;;
13240;SDS011;6687;47.790;7.322;2023-06-22T14:36:32;2.78;;;1.60;;
13240;SDS011;6687;47.790;7.322;2023-06-22T14:38:59;1.77;;;1.67;;
13240;SDS011;6687;47.790;7.322;2023-06-22T14:41:26;5.15;;;1.85;;
13240;SDS011;6687;47.790;7.322;2023-06-22T14:43:52;2.05;;;1.33;;
13240;SDS011;6687;47.790;7.322;2023-06-22T14:46:19;2.00;;;1.58;;
13240;SDS011;6687;47.790;7.322;2023-06-22T14:48:46;3.72;;;1.50;;
13240;SDS011;6687;47.790;7.322;2023-06-22T14:51:14;1.80;;;1.63;;
13240;SDS011;6687;47.790;7.322;2023-06-22T14:53:42;2.22;;;1.42;;
13240;SDS011;6687;47.790;7.322;2023-06-22T14:56:10;2.55;;;1.73;;
13240;SDS011;6687;47.790;7.322;2023-06-22T14:58:37;4.00;;;1.48;;
13240;SDS011;6687;47.790;7.322;2023-06-22T15:01:06;1.55;;;1.45;;
13240;SDS011;6687;47.790;7.322;2023-06-22T15:03:33;4.53;;;1.23;;
13240;SDS011;6687;47.790;7.322;2023-06-22T15:06:01;1.67;;;1.58;;
13240;SDS011;6687;47.790;7.322;2023-06-22T15:08:29;2.65;;;1.40;;
13240;SDS011;6687;47.790;7.322;2023-06-22T15:10:58;4.35;;;1.90;;
13240;SDS011;6687;47.790;7.322;2023-06-22T15:13:26;1.50;;;1.40;;
13240;SDS011;6687;47.790;7.322;2023-06-22T15:15:52;1.50;;;1.30;;
13240;SDS011;6687;47.790;7.322;2023-06-22T15:18:19;2.55;;;1.42;;
13240;SDS011;6687;47.790;7.322;2023-06-22T15:20:46;2.38;;;1.30;;
13240;SDS011;6687;47.790;7.322;2023-06-22T15:23:13;1.10;;;0.98;;
13240;SDS011;6687;47.790;7.322;2023-06-22T15:25:41;2.78;;;2.00;;
13240;SDS011;6687;47.790;7.322;2023-06-22T15:28:09;3.45;;;1.10;;
13240;SDS011;6687;47.790;7.322;2023-06-22T15:30:36;0.75;;;0.75;;
13240;SDS011;6687;47.790;7.322;2023-06-22T15:33:02;0.93;;;0.90;;
13240;SDS011;6687;47.790;7.322;2023-06-22T15:35:29;1.63;;;1.42;;
13240;SDS011;6687;47.790;7.322;2023-06-22T15:37:56;1.00;;;0.88;;
13240;SDS011;6687;47.790;7.322;2023-06-22T15:40:23;1.38;;;1.23;;
13240;SDS011;6687;47.790;7.322;2023-06-22T15:42:51;1.38;;;0.77;;
13240;SDS011;6687;47.790;7.322;2023-06-22T15:45:18;0.85;;;0.65;;
13240;SDS011;6687;47.790;7.322;2023-06-22T15:47:44;1.52;;;0.73;;
13240;SDS011;6687;47.790;7.322;2023-06-22T15:50:11;1.17;;;0.98;;
13240;SDS011;6687;47.790;7.322;2023-06-22T15:52:38;1.25;;;1.15;;
13240;SDS011;6687;47.790;7.322;2023-06-22T15:55:06;0.98;;;0.98;;
13240;SDS011;6687;47.790;7.322;2023-06-22T15:57:34;1.38;;;0.90;;
13240;SDS011;6687;47.790;7.322;2023-06-22T16:00:03;1.08;;;1.00;;
13240;SDS011;6687;47.790;7.322;2023-06-22T16:02:31;2.25;;;1.17;;
13240;SDS011;6687;47.790;7.322;2023-06-22T16:04:57;1.73;;;1.33;;
13240;SDS011;6687;47.790;7.322;2023-06-22T16:07:24;0.93;;;0.80;;
13240;SDS011;6687;47.790;7.322;2023-06-22T16:09:52;0.70;;;0.70;;
13240;SDS011;6687;47.790;7.322;2023-06-22T16:12:18;1.45;;;1.00;;
13240;SDS011;6687;47.790;7.322;2023-06-22T16:14:45;4.10;;;1.17;;
13240;SDS011;6687;47.790;7.322;2023-06-22T16:17:13;2.33;;;1.10;;
13240;SDS011;6687;47.790;7.322;2023-06-22T16:19:40;1.13;;;1.02;;
13240;SDS011;6687;47.790;7.322;2023-06-22T16:22:07;1.95;;;0.80;;
13240;SDS011;6687;47.790;7.322;2023-06-22T16:24:33;0.90;;;0.70;;
13240;SDS011;6687;47.790;7.322;2023-06-22T16:27:00;1.13;;;1.02;;
13240;SDS011;6687;47.790;7.322;2023-06-22T16:29:27;4.68;;;1.58;;
13240;SDS011;6687;47.790;7.322;2023-06-22T16:31:53;1.60;;;0.93;;
13240;SDS011;6687;47.790;7.322;2023-06-22T16:34:22;0.82;;;0.80;;
13240;SDS011;6687;47.790;7.322;2023-06-22T16:36:48;1.40;;;1.30;;
13240;SDS011;6687;47.790;7.322;2023-06-22T16:39:15;2.03;;;0.95;;
13240;SDS011;6687;47.790;7.322;2023-06-22T16:41:42;2.35;;;1.33;;
13240;SDS011;6687;47.790;7.322;2023-06-22T16:44:10;2.13;;;1.30;;
13240;SDS011;6687;47.790;7.322;2023-06-22T16:46:36;2.80;;;1.13;;
13240;SDS011;6687;47.790;7.322;2023-06-22T16:49:04;2.10;;;1.20;;
13240;SDS011;6687;47.790;7.322;2023-06-22T16:51:32;1.45;;;0.90;;
13240;SDS011;6687;47.790;7.322;2023-06-22T16:53:59;1.42;;;1.20;;
13240;SDS011;6687;47.790;7.322;2023-06-22T16:56:26;2.72;;;1.25;;
13240;SDS011;6687;47.790;7.322;2023-06-22T16:58:54;0.73;;;0.73;;
13240;SDS011;6687;47.790;7.322;2023-06-22T17:01:22;1.23;;;1.00;;
13240;SDS011;6687;47.790;7.322;2023-06-22T17:03:53;1.20;;;1.10;;
13240;SDS011;6687;47.790;7.322;2023-06-22T17:06:27;2.38;;;1.02;;
13240;SDS011;6687;47.790;7.322;2023-06-22T17:08:55;1.63;;;1.10;;
13240;SDS011;6687;47.790;7.322;2023-06-22T17:11:23;1.10;;;1.00;;
13240;SDS011;6687;47.790;7.322;2023-06-22T17:13:50;1.13;;;0.93;;
13240;SDS011;6687;47.790;7.322;2023-06-22T17:16:17;1.30;;;1.17;;
13240;SDS011;6687;47.790;7.322;2023-06-22T17:18:45;2.97;;;1.15;;
13240;SDS011;6687;47.790;7.322;2023-06-22T17:21:20;1.15;;;1.02;;
13240;SDS011;6687;47.790;7.322;2023-06-22T17:23:47;1.42;;;0.98;;
13240;SDS011;6687;47.790;7.322;2023-06-22T17:26:16;1.38;;;1.20;;
13240;SDS011;6687;47.790;7.322;2023-06-22T17:28:45;2.47;;;1.58;;
13240;SDS011;6687;47.790;7.322;2023-06-22T17:31:12;1.42;;;1.00;;
13240;SDS011;6687;47.790;7.322;2023-06-22T17:33:39;1.75;;;1.48;;
13240;SDS011;6687;47.790;7.322;2023-06-22T17:36:08;1.30;;;1.20;;
13240;SDS011;6687;47.790;7.322;2023-06-22T17:38:37;2.70;;;1.30;;
13240;SDS011;6687;47.790;7.322;2023-06-22T17:41:04;1.88;;;1.30;;
13240;SDS011;6687;47.790;7.322;2023-06-22T17:43:32;1.27;;;1.08;;
13240;SDS011;6687;47.790;7.322;2023-06-22T17:46:08;1.52;;;1.35;;
13240;SDS011;6687;47.790;7.322;2023-06-22T17:48:36;1.83;;;1.30;;
13240;SDS011;6687;47.790;7.322;2023-06-22T17:51:03;2.08;;;1.60;;
13240;SDS011;6687;47.790;7.322;2023-06-22T17:53:31;3.25;;;1.85;;
13240;SDS011;6687;47.790;7.322;2023-06-22T17:55:59;1.77;;;1.27;;
13240;SDS011;6687;47.790;7.322;2023-06-22T17:58:27;3.47;;;1.38;;
13240;SDS011;6687;47.790;7.322;2023-06-22T18:00:55;2.13;;;1.70;;
13240;SDS011;6687;47.790;7.322;2023-06-22T18:03:23;1.90;;;1.45;;
13240;SDS011;6687;47.790;7.322;2023-06-22T18:05:50;1.40;;;1.30;;
13240;SDS011;6687;47.790;7.322;2023-06-22T18:08:17;1.13;;;1.05;;
13240;SDS011;6687;47.790;7.322;2023-06-22T18:10:51;2.63;;;1.23;;
13240;SDS011;6687;47.790;7.322;2023-06-22T18:13:23;0.90;;;0.82;;
13240;SDS011;6687;47.790;7.322;2023-06-22T18:15:50;1.65;;;1.25;;
13240;SDS011;6687;47.790;7.322;2023-06-22T18:18:20;0.88;;;0.70;;
13240;SDS011;6687;47.790;7.322;2023-06-22T18:20:49;1.65;;;1.35;;
13240;SDS011;6687;47.790;7.322;2023-06-22T18:23:17;1.65;;;1.00;;
13240;SDS011;6687;47.790;7.322;2023-06-22T18:25:45;1.38;;;1.15;;
13240;SDS011;6687;47.790;7.322;2023-06-22T18:28:13;2.05;;;1.17;;
13240;SDS011;6687;47.790;7.322;2023-06-22T18:30:42;1.42;;;1.30;;
13240;SDS011;6687;47.790;7.322;2023-06-22T18:33:09;1.30;;;1.20;;
13240;SDS011;6687;47.790;7.322;2023-06-22T18:35:37;1.58;;;1.20;;
13240;SDS011;6687;47.790;7.322;2023-06-22T18:38:04;1.17;;;0.90;;
13240;SDS011;6687;47.790;7.322;2023-06-22T18:40:33;1.38;;;1.27;;
13240;SDS011;6687;47.790;7.322;2023-06-22T18:43:00;1.73;;;0.93;;
13240;SDS011;6687;47.790;7.322;2023-06-22T18:45:27;1.23;;;1.10;;
13240;SDS011;6687;47.790;7.322;2023-06-22T18:48:01;1.83;;;0.90;;
13240;SDS011;6687;47.790;7.322;2023-06-22T18:50:35;0.98;;;0.63;;
13240;SDS011;6687;47.790;7.322;2023-06-22T18:53:10;0.95;;;0.85;;
13240;SDS011;6687;47.790;7.322;2023-06-22T18:55:40;1.95;;;1.05;;
13240;SDS011;6687;47.790;7.322;2023-06-22T18:58:13;1.00;;;0.90;;
13240;SDS011;6687;47.790;7.322;2023-06-22T19:00:41;3.08;;;1.23;;
13240;SDS011;6687;47.790;7.322;2023-06-22T19:03:08;1.35;;;0.80;;
13240;SDS011;6687;47.790;7.322;2023-06-22T19:05:39;0.98;;;0.70;;
13240;SDS011;6687;47.790;7.322;2023-06-22T19:08:07;1.90;;;0.77;;
13240;SDS011;6687;47.790;7.322;2023-06-22T19:10:39;1.70;;;0.70;;
13240;SDS011;6687;47.790;7.322;2023-06-22T19:13:17;3.25;;;1.05;;
13240;SDS011;6687;47.790;7.322;2023-06-22T19:15:52;0.95;;;0.60;;
13240;SDS011;6687;47.790;7.322;2023-06-22T19:18:20;2.25;;;0.82;;
13240;SDS011;6687;47.790;7.322;2023-06-22T19:20:51;1.70;;;0.85;;
13240;SDS011;6687;47.790;7.322;2023-06-22T19:23:27;1.20;;;0.85;;
13240;SDS011;6687;47.790;7.322;2023-06-22T19:25:56;1.40;;;1.00;;
13240;SDS011;6687;47.790;7.322;2023-06-22T19:28:23;2.42;;;0.70;;
13240;SDS011;6687;47.790;7.322;2023-06-22T19:30:51;0.82;;;0.60;;
13240;SDS011;6687;47.790;7.322;2023-06-22T19:33:20;1.85;;;1.02;;
13240;SDS011;6687;47.790;7.322;2023-06-22T19:35:47;1.73;;;0.70;;
13240;SDS011;6687;47.790;7.322;2023-06-22T19:38:18;0.63;;;0.40;;
13240;SDS011;6687;47.790;7.322;2023-06-22T19:40:45;1.88;;;0.70;;
13240;SDS011;6687;47.790;7.322;2023-06-22T19:43:13;1.10;;;0.88;;
13240;SDS011;6687;47.790;7.322;2023-06-22T19:45:40;0.50;;;0.50;;
13240;SDS011;6687;47.790;7.322;2023-06-22T19:48:08;1.40;;;0.77;;
13240;SDS011;6687;47.790;7.322;2023-06-22T19:50:36;0.50;;;0.50;;
13240;SDS011;6687;47.790;7.322;2023-06-22T19:53:07;1.02;;;0.73;;
13240;SDS011;6687;47.790;7.322;2023-06-22T19:55:37;0.90;;;0.65;;
13240;SDS011;6687;47.790;7.322;2023-06-22T19:58:07;0.82;;;0.65;;
13240;SDS011;6687;47.790;7.322;2023-06-22T20:00:34;1.73;;;1.02;;
13240;SDS011;6687;47.790;7.322;2023-06-22T20:03:01;1.60;;;0.80;;
13240;SDS011;6687;47.790;7.322;2023-06-22T20:05:28;0.88;;;0.73;;
13240;SDS011;6687;47.790;7.322;2023-06-22T20:07:55;1.23;;;1.13;;
13240;SDS011;6687;47.790;7.322;2023-06-22T20:10:28;1.60;;;1.15;;
13240;SDS011;6687;47.790;7.322;2023-06-22T20:12:57;1.10;;;1.00;;
13240;SDS011;6687;47.790;7.322;2023-06-22T20:15:23;1.95;;;0.90;;
13240;SDS011;6687;47.790;7.322;2023-06-22T20:17:52;1.00;;;0.90;;
13240;SDS011;6687;47.790;7.322;2023-06-22T20:20:23;1.40;;;1.30;;
13240;SDS011;6687;47.790;7.322;2023-06-22T20:22:54;0.73;;;0.70;;
13240;SDS011;6687;47.790;7.322;2023-06-22T20:25:21;1.67;;;0.68;;